Pagrindinis puslapis
METAR-TAF:

METAR-TAF

Oro uostai :

Ipjalesas, Kolumbija

platuma: 00-49N, ilguma: 077-38W, Aukštis: 2961 m

Dabartinis oras

Ataskaita buvo paskelbta 14 valandos ir 48 minutes, ne 19:00 UTC
Vėjas 9 kt iš Rytų/Pietryčių
Temperatūra 14°C
Drėgmė 72%
Slėgis 1029 hPa
Matomumas 10 km arba daugiau
Išsisklaidę debesys ne aukštis 1800 ft

METAR: SKIP 091900Z 11009KT 9999 SCT018 14/09 A3038

Laikas: 04:48 (09:48 UTC)


TAF: trūkstamas

Orai ataskaitas ir orų prognozės (METAR, TAF).

turimą stotys yra geltonos ir raudonos taškus žemėlapyje.

Perkelti pele per norėdami pamatyti stoties vardą.

Tada spustelėkite, norėdami matyti oro stebėjimo ir prognozės.

Norėdami pakeisti žemėlapį: spustelėkite ant žalios mygtukų su juodo kryžiaus žemyn,; žalią mygtuką su brūkšneliu, jei norite nutolinti; arba žalių rodyklių gretimoms žemėlapius.


METAR-TAF: